Página principal
METAR-TAF:

METAR-TAF

Aeroportos :

Kalskag, Alasca, Estados Unidos

latitude: 61-32-11N, longitude: 160-20-29W, altura: 17 m

Observação actual do tempo

O boletim foi feito há 1 hora e 23 minutos, às 15:56 UTC
Vento calmo
Temperatura 12°C
Humidade 82%
Pressão 1023 hPa
Visibilidade: 16.1 km
Céu limpo

METAR: PALG 151556Z AUTO 00000KT 10SM CLR 12/09 A3022 RMK AO2 SLP235 T01220094 PNO $

Hora: 09:19 (17:19 UTC)


TAF: em falta

Observações e previsões do tempo de mais de 4000 aeroportos (mensagens METAR e TAF).

As estações disponíveis são os pontos amarelos e vermelhos sobre o mapa.

Mova o rato sobre o mapa para ver o nome da estação.

Depois clique no ponto para visualizar as observações e previsões meteorológicas.

Para alterar o mapa : clique nos botões verdes com uma cruz preta para aumentar o zoom; no botão verde com uma pitada de zoom; ou nas setas verdes para mapas adjacentes.


METAR-TAF: